Time;durP1;ratioP1;P1;durP2;ratioP2;P2;SDS_P1;SDS_P2;PMS_P1;PMS_P2;Temp;Humidity;BMP_temperature;BMP_pressure;BME280_temperature;BME280_humidity;BME280_pressure;Samples;Min_cycle;Max_cycle;Signal;HPM_P1;HPM_P2
2022/05/31 00:04:46;;;;;;;;;;;;;;;-145.66;100.00;59599.19;10498782;28;19931;-62
2022/05/31 00:09:48;;;;;;;;;;;;;;;-145.66;100.00;59599.19;10498577;28;19920;-62
2022/05/31 00:14:50;;;;;;;;;;;;;;;-145.66;100.00;59599.19;10498554;28;19920;-62
2022/05/31 00:19:52;;;;;;;;;;;;;;;-145.66;100.00;59599.19;10498370;28;19920;-62
2022/05/31 00:24:54;;;;;;;;;;;;;;;-145.66;100.00;59599.19;10498311;28;19928;-62
2022/05/31 00:29:57;;;;;;;;;;;;;;;-145.66;100.00;59599.19;10497539;28;19920;-62
2022/05/31 00:34:59;;;;;;;;;;;;;;;-145.66;100.00;59599.19;10498169;28;19921;-62
2022/05/31 00:40:02;;;;;;;;;;;;;;;-145.66;100.00;59599.19;10480226;28;19920;-62
2022/05/31 00:45:04;;;;;;;;;;;;;;;-145.66;100.00;59599.19;10469119;22;19920;-61
2022/05/31 00:50:08;;;;;;;;;;;;;;;-145.66;100.00;59599.19;10456747;28;19921;-61
2022/05/31 00:55:13;;;;;;;;;;;;;;;-145.66;100.00;59599.19;10456280;28;19928;-61
2022/05/31 01:00:16;;;;;;;;;;;;;;;-145.66;100.00;59599.19;10455573;28;20272;-61
2022/05/31 01:05:18;;;;;;;;;;;;;;;-145.66;100.00;59599.19;10456045;28;19921;-61
2022/05/31 01:10:21;;;;;;;;;;;;;;;-145.66;100.00;59599.19;10456536;28;20386;-61
2022/05/31 01:15:23;;;;;;;;;;;;;;;-145.66;100.00;59599.19;10463912;28;19920;-61
2022/05/31 01:20:26;;;;;;;;;;;;;;;-145.66;100.00;59599.19;10463365;28;19927;-61
2022/05/31 01:25:31;;;;;;;;;;;;;;;-145.66;100.00;59599.19;10463023;28;19920;-61
2022/05/31 01:30:34;;;;;;;;;;;;;;;-145.66;100.00;59599.19;10462790;28;19928;-61
2022/05/31 01:35:37;;;;;;;;;;;;;;;-145.66;100.00;59599.19;10461529;28;19924;-61
2022/05/31 01:40:48;;;;;;;;;;;;;;;-145.66;100.00;59599.19;10461934;28;20379;-61
2022/05/31 01:46:01;;;;;;;;;;;;;;;-145.66;100.00;59599.19;10461517;28;19920;-61
2022/05/31 01:51:04;;;;;;;;;;;;;;;-145.66;100.00;59599.19;10460973;28;19920;-61
2022/05/31 01:56:06;;;;;;;;;;;;;;;-145.66;100.00;59599.19;10461962;28;19927;-61
2022/05/31 02:01:08;;;;;;;;;;;;;;;-145.66;100.00;59599.19;10460381;28;19920;-61
2022/05/31 02:06:24;;;;;;;;;;;;;;;-145.66;100.00;59599.19;10460262;28;19927;-61
2022/05/31 02:11:27;;;;;;;;;;;;;;;-145.66;100.00;59599.19;10461353;28;19932;-61
2022/05/31 02:16:29;;;;;;;;;;;;;;;-145.66;100.00;59599.19;10461039;28;19921;-61
2022/05/31 02:21:37;;;;;;;;;;;;;;;-145.66;100.00;59599.19;10460335;28;19925;-61
2022/05/31 02:26:41;;;;;;;;;;;;;;;-145.66;100.00;59599.19;10458967;28;19928;-61
2022/05/31 02:31:44;;;;;;;;;;;;;;;-145.66;100.00;59599.19;10460619;28;19920;-61
2022/05/31 02:36:47;;;;;;;;;;;;;;;-145.66;100.00;59599.19;10459139;28;19928;-61
2022/05/31 02:41:50;;;;;;;;;;;;;;;-145.66;100.00;59599.19;10459486;28;20390;-60
2022/05/31 02:46:53;;;;;;;;;;;;;;;-145.66;100.00;59599.19;10459246;28;20274;-61
2022/05/31 02:51:57;;;;;;;;;;;;;;;-145.66;100.00;59599.19;10459791;28;19966;-61
2022/05/31 02:56:59;;;;;;;;;;;;;;;-145.66;100.00;59599.19;10459472;28;19920;-60
2022/05/31 03:02:01;;;;;;;;;;;;;;;-145.66;100.00;59599.19;10459291;28;19921;-60
2022/05/31 03:07:04;;;;;;;;;;;;;;;-145.66;100.00;59599.19;10459100;28;19920;-60
2022/05/31 03:12:09;;;;;;;;;;;;;;;-145.66;100.00;59599.19;10459002;28;19928;-61
2022/05/31 03:17:17;;;;;;;;;;;;;;;-145.66;100.00;59599.19;10458778;28;19928;-61
2022/05/31 03:22:21;;;;;;;;;;;;;;;-145.66;100.00;59599.19;10458582;28;19921;-61
2022/05/31 03:27:23;;;;;;;;;;;;;;;-145.66;100.00;59599.19;10458332;28;19921;-60
2022/05/31 03:32:25;;;;;;;;;;;;;;;-145.66;100.00;59599.19;10458148;28;19927;-60
2022/05/31 03:37:27;;;;;;;;;;;;;;;-145.66;100.00;59599.19;10455783;28;19924;-60
2022/05/31 03:42:29;;;;;;;;;;;;;;;-145.66;100.00;59599.19;10457720;28;19921;-61
2022/05/31 03:47:31;;;;;;;;;;;;;;;-145.66;100.00;59599.19;10457655;28;19921;-60
2022/05/31 03:52:34;;;;;;;;;;;;;;;-145.66;100.00;59599.19;10457617;28;19927;-61
2022/05/31 03:57:36;;;;;;;;;;;;;;;-145.66;100.00;59599.19;10457295;28;19921;-61
2022/05/31 04:02:38;;;;;;;;;;;;;;;-145.66;100.00;59599.19;10457251;28;19921;-61
2022/05/31 04:07:40;;;;;;;;;;;;;;;-145.66;100.00;59599.19;10457159;28;19928;-61
2022/05/31 04:12:42;;;;;;;;;;;;;;;-145.66;100.00;59599.19;10456531;28;19920;-61
2022/05/31 04:17:45;;;;;;;;;;;;;;;-145.66;100.00;59599.19;10456407;28;20272;-61
2022/05/31 04:22:47;;;;;;;;;;;;;;;-145.66;100.00;59599.19;10456211;28;20295;-61
2022/05/31 04:27:49;;;;;;;;;;;;;;;-145.66;100.00;59599.19;10456717;28;20389;-60
2022/05/31 04:32:53;;;;;;;;;;;;;;;-145.66;100.00;59599.19;10456823;28;19924;-61
2022/05/31 04:37:55;;;;;;;;;;;;;;;-145.66;100.00;59599.19;10456606;28;19921;-60
2022/05/31 04:42:57;;;;;;;;;;;;;;;-145.66;100.00;59599.19;10456153;28;19931;-60
2022/05/31 04:47:59;;;;;;;;;;;;;;;-145.66;100.00;59599.19;10461215;28;19971;-61
2022/05/31 04:53:01;;;;;;;;;;;;;;;-145.66;100.00;59599.19;10463986;28;20394;-60
2022/05/31 04:58:04;;;;;;;;;;;;;;;-145.66;100.00;59599.19;10463603;28;20359;-60
2022/05/31 05:03:11;;;;;;;;;;;;;;;-145.66;100.00;59599.19;10463382;28;19921;-61
2022/05/31 05:08:13;;;;;;;;;;;;;;;-145.66;100.00;59599.19;10463751;28;19927;-61
2022/05/31 05:13:15;;;;;;;;;;;;;;;-145.66;100.00;59599.19;10463031;28;19921;-61
2022/05/31 05:18:18;;;;;;;;;;;;;;;-145.66;100.00;59599.19;10463920;28;19921;-61
2022/05/31 05:23:20;;;;;;;;;;;;;;;-145.66;100.00;59599.19;10463316;28;19927;-61
2022/05/31 05:33:43;;;;;;;;;;;;;;;-145.66;100.00;59599.19;10462901;28;19920;-61
2022/05/31 05:38:46;;;;;;;;;;;;;;;-145.66;100.00;59599.19;10462703;28;19920;-60
2022/05/31 05:43:48;;;;;;;;;;;;;;;-145.66;100.00;59599.19;10461912;28;19920;-61
2022/05/31 05:48:50;;;;;;;;;;;;;;;-145.66;100.00;59599.19;10462161;28;19920;-61
2022/05/31 05:53:53;;;;;;;;;;;;;;;-145.66;100.00;59599.19;10462085;28;19927;-61
2022/05/31 05:58:55;;;;;;;;;;;;;;;-145.66;100.00;59599.19;10460065;28;19944;-61
2022/05/31 06:03:59;;;;;;;;;;;;;;;-145.66;100.00;59599.19;10461714;28;19924;-61
2022/05/31 06:09:03;;;;;;;;;;;;;;;-145.66;100.00;59599.19;10460204;28;19921;-61
2022/05/31 06:14:16;;;;;;;;;;;;;;;-145.66;100.00;59599.19;10461276;28;19921;-60
2022/05/31 06:19:20;;;;;;;;;;;;;;;-145.66;100.00;59599.19;10459985;28;19935;-61
2022/05/31 06:24:23;;;;;;;;;;;;;;;-145.66;100.00;59599.19;10459944;28;19927;-60
2022/05/31 06:29:27;;;;;;;;;;;;;;;-145.66;100.00;59599.19;10460738;28;19927;-60
2022/05/31 06:34:30;;;;;;;;;;;;;;;-145.66;100.00;59599.19;10460546;28;19921;-65
2022/05/31 06:39:35;;;;;;;;;;;;;;;-145.66;100.00;59599.19;10458582;28;19921;-64
2022/05/31 06:44:39;;;;;;;;;;;;;;;-145.66;100.00;59599.19;10458763;28;19925;-64
2022/05/31 06:49:41;;;;;;;;;;;;;;;-145.66;100.00;59599.19;10459070;28;19927;-64
2022/05/31 07:00:09;;;;;;;;;;;;;;;-145.66;100.00;59599.19;10459395;28;19921;-64
2022/05/31 07:05:11;;;;;;;;;;;;;;;-145.66;100.00;59599.19;10458581;28;19920;-64
2022/05/31 07:10:14;;;;;;;;;;;;;;;-145.66;100.00;59599.19;10458755;28;19921;-64
2022/05/31 07:15:16;;;;;;;;;;;;;;;-145.66;100.00;59599.19;10458826;28;19921;-64
2022/05/31 07:20:18;;;;;;;;;;;;;;;-145.66;100.00;59599.19;10445621;28;19921;-64
2022/05/31 07:25:20;;;;;;;;;;;;;;;-145.66;100.00;59599.19;10417020;28;19921;-62
2022/05/31 07:30:23;;;;;;;;;;;;;;;-145.66;100.00;59599.19;10422362;28;20384;-62
2022/05/31 07:35:25;;;;;;;;;;;;;;;-145.66;100.00;59599.19;10414999;28;20300;-62
2022/05/31 07:40:27;;;;;;;;;;;;;;;-145.66;100.00;59599.19;10416829;28;19932;-62
2022/05/31 07:45:30;;;;;;;;;;;;;;;-145.66;100.00;59599.19;10416316;28;19928;-62
2022/05/31 07:50:32;;;;;;;;;;;;;;;-145.66;100.00;59599.19;10413878;28;19925;-62
2022/05/31 07:55:34;;;;;;;;;;;;;;;-145.66;100.00;59599.19;10407959;28;19925;-62
2022/05/31 08:00:36;;;;;;;;;;;;;;;-145.66;100.00;59599.19;10409033;28;19925;-63
2022/05/31 08:05:39;;;;;;;;;;;;;;;-145.66;100.00;59599.19;10406409;28;19925;-62
2022/05/31 08:10:41;;;;;;;;;;;;;;;-145.66;100.00;59599.19;10408939;28;19925;-63
2022/05/31 08:15:43;;;;;;;;;;;;;;;-145.66;100.00;59599.19;10408132;28;19929;-63
2022/05/31 08:20:46;;;;;;;;;;;;;;;-145.66;100.00;59599.19;10410831;28;19932;-62
2022/05/31 08:25:48;;;;;;;;;;;;;;;-145.66;100.00;59599.19;10415680;28;20294;-62
2022/05/31 08:30:52;;;;;;;;;;;;;;;-145.66;100.00;59599.19;10416361;28;19931;-62
2022/05/31 08:35:54;;;;;;;;;;;;;;;-145.66;100.00;59599.19;10415564;28;19972;-63
2022/05/31 08:41:08;;;;;;;;;;;;;;;-145.66;100.00;59599.19;10416067;28;20331;-63
2022/05/31 08:46:31;;;;;;;;;;;;;;;-145.66;100.00;59599.19;10415941;28;20307;-62
2022/05/31 08:51:53;;;;;;;;;;;;;;;-145.66;100.00;59599.19;10414731;28;20371;-63
2022/05/31 08:57:06;;;;;;;;;;;;;;;-145.66;100.00;59599.19;10414137;28;19921;-63
2022/05/31 09:02:25;;;;;;;;;;;;;;;-145.66;100.00;59599.19;10414415;28;19925;-63
2022/05/31 09:07:48;;;;;;;;;;;;;;;-145.66;100.00;59599.19;10413198;28;19929;-63
2022/05/31 09:12:52;;;;;;;;;;;;;;;-145.66;100.00;59599.19;10414461;28;19924;-63
2022/05/31 09:18:12;;;;;;;;;;;;;;;-145.66;100.00;59599.19;10415309;28;19925;-63
2022/05/31 09:23:22;;;;;;;;;;;;;;;-145.66;100.00;59599.19;10414477;28;19920;-63
2022/05/31 09:28:29;;;;;;;;;;;;;;;-145.66;100.00;59599.19;10412693;28;19972;-63
2022/05/31 09:33:32;;;;;;;;;;;;;;;-145.66;100.00;59599.19;10411807;28;20307;-63
2022/05/31 09:38:35;;;;;;;;;;;;;;;-145.66;100.00;59599.19;10415910;28;19936;-63
2022/05/31 09:43:40;;;;;;;;;;;;;;;-145.66;100.00;59599.19;10420867;28;19921;-63
2022/05/31 09:48:49;;;;;;;;;;;;;;;-145.66;100.00;59599.19;10421094;28;20027;-65
2022/05/31 09:59:13;;;;;;;;;;;;;;;-145.66;100.00;59599.19;10419185;28;20279;-65
2022/05/31 10:04:29;;;;;;;;;;;;;;;-145.66;100.00;59599.19;10419429;28;19929;-65
2022/05/31 10:21:40;;;;;;;;;;;;;;;-145.66;100.00;59599.19;10450560;28;20279;-65
2022/05/31 10:26:46;;;;;;;;;;;;;;;-145.66;100.00;59599.19;10459694;28;19921;-65
2022/05/31 10:31:48;;;;;;;;;;;;;;;-145.66;100.00;59599.19;10443205;28;19940;-65
2022/05/31 10:36:52;;;;;;;;;;;;;;;-145.66;100.00;59599.19;10459135;28;19928;-65
2022/05/31 10:41:55;;;;;;;;;;;;;;;-145.66;100.00;59599.19;10460165;28;19921;-66
2022/05/31 10:47:07;;;;;;;;;;;;;;;-145.66;100.00;59599.19;10418580;28;19921;-66
2022/05/31 10:52:17;;;;;;;;;;;;;;;-145.66;100.00;59599.19;10415907;28;20287;-66
2022/05/31 10:57:29;;;;;;;;;;;;;;;-145.66;100.00;59599.19;10400393;28;20276;-66
2022/05/31 11:02:50;;;;;;;;;;;;;;;-145.66;100.00;59599.19;10418066;28;19921;-66
2022/05/31 11:13:26;;;;;;;;;;;;;;;-145.66;100.00;59599.19;10417588;28;19943;-65
2022/05/31 11:18:40;;;;;;;;;;;;;;;-145.66;100.00;59599.19;10417736;28;19931;-65
2022/05/31 11:23:45;;;;;;;;;;;;;;;-145.66;100.00;59599.19;10417245;28;20372;-65
2022/05/31 11:28:51;;;;;;;;;;;;;;;-145.66;100.00;59599.19;10416882;28;19921;-65
2022/05/31 11:34:12;;;;;;;;;;;;;;;-145.66;100.00;59599.19;10416023;28;19921;-65
2022/05/31 11:39:33;;;;;;;;;;;;;;;-145.66;100.00;59599.19;10416641;28;19921;-65
2022/05/31 11:44:51;;;;;;;;;;;;;;;-145.66;100.00;59599.19;10437795;28;19921;-63
2022/05/31 11:50:14;;;;;;;;;;;;;;;-145.66;100.00;59599.19;10455479;28;19929;-64
2022/05/31 11:55:25;;;;;;;;;;;;;;;-145.66;100.00;59599.19;10457033;28;19920;-64
2022/05/31 12:00:28;;;;;;;;;;;;;;;-145.66;100.00;59599.19;10457688;28;19927;-63
2022/05/31 12:05:31;;;;;;;;;;;;;;;-145.66;100.00;59599.19;10456447;28;19921;-63
2022/05/31 12:10:41;;;;;;;;;;;;;;;-145.66;100.00;59599.19;10457315;28;19921;-64
2022/05/31 12:15:43;;;;;;;;;;;;;;;-145.66;100.00;59599.19;10455489;28;19944;-64
2022/05/31 12:21:04;;;;;;;;;;;;;;;-145.66;100.00;59599.19;10455269;28;20284;-64
2022/05/31 12:26:27;;;;;;;;;;;;;;;-145.66;100.00;59599.19;10457254;28;19921;-63
2022/05/31 12:31:29;;;;;;;;;;;;;;;-145.66;100.00;59599.19;10455719;28;19932;-63
2022/05/31 12:36:51;;;;;;;;;;;;;;;-145.66;100.00;59599.19;10450483;28;20389;-64
2022/05/31 12:41:53;;;;;;;;;;;;;;;-145.66;100.00;59599.19;10415408;28;19921;-63
2022/05/31 12:47:09;;;;;;;;;;;;;;;-145.66;100.00;59599.19;10415253;28;19921;-63
2022/05/31 12:57:19;;;;;;;;;;;;;;;-145.66;100.00;59599.19;10454153;23;19920;-68
2022/05/31 13:02:34;;;;;;;;;;;;;;;-145.66;100.00;59599.19;10540335;28;19970;-68
2022/05/31 13:07:40;;;;;;;;;;;;;;;-145.66;100.00;59599.19;10524903;28;19934;-68
2022/05/31 13:23:29;;;;;;;;;;;;;;;-145.66;100.00;59599.19;10531038;28;19973;-68
2022/05/31 13:28:34;;;;;;;;;;;;;;;-145.66;100.00;59599.19;10528128;28;19942;-67
2022/05/31 13:33:37;;;;;;;;;;;;;;;-145.66;100.00;59599.19;10546476;28;19926;-68
2022/05/31 13:38:41;;;;;;;;;;;;;;;-145.66;100.00;59599.19;10546312;28;19920;-68
2022/05/31 13:43:48;;;;;;;;;;;;;;;-145.66;100.00;59599.19;10565369;28;19932;-68
2022/05/31 13:48:52;;;;;;;;;;;;;;;-145.66;100.00;59599.19;10587532;28;19993;-68
2022/05/31 13:53:55;;;;;;;;;;;;;;;-145.66;100.00;59599.19;10587936;28;19919;-68
2022/05/31 13:58:57;;;;;;;;;;;;;;;-145.66;100.00;59599.19;10525838;28;19925;-69
2022/05/31 14:04:00;;;;;;;;;;;;;;;-145.66;100.00;59599.19;10515833;28;19920;-69
2022/05/31 14:09:05;;;;;;;;;;;;;;;-145.66;100.00;59599.19;10527510;28;19923;-69
2022/05/31 14:14:12;;;;;;;;;;;;;;;-145.66;100.00;59599.19;10544936;28;19920;-68
2022/05/31 14:19:18;;;;;;;;;;;;;;;-145.66;100.00;59599.19;10523869;28;20291;-69
2022/05/31 14:24:22;;;;;;;;;;;;;;;-145.66;100.00;59599.19;10523875;28;19924;-68
2022/05/31 14:29:25;;;;;;;;;;;;;;;-145.66;100.00;59599.19;10507500;28;19927;-67
2022/05/31 14:34:30;;;;;;;;;;;;;;;-145.66;100.00;59599.19;10526248;28;19927;-68
2022/05/31 14:39:33;;;;;;;;;;;;;;;-145.66;100.00;59599.19;10508687;28;19920;-72
2022/05/31 14:44:35;;;;;;;;;;;;;;;-145.66;100.00;59599.19;10501755;28;19970;-69
2022/05/31 14:49:44;;;;;;;;;;;;;;;-145.66;100.00;59599.19;10500782;28;19942;-69
2022/05/31 14:54:47;;;;;;;;;;;;;;;-145.66;100.00;59599.19;10483766;28;19920;-69
2022/05/31 14:59:50;;;;;;;;;;;;;;;-145.66;100.00;59599.19;10532624;28;19920;-69
2022/05/31 15:04:53;;;;;;;;;;;;;;;-145.66;100.00;59599.19;10524349;28;20370;-69
2022/05/31 15:10:09;;;;;;;;;;;;;;;-145.66;100.00;59599.19;10542040;28;19927;-69
2022/05/31 15:20:33;;;;;;;;;;;;;;;-145.66;100.00;59599.19;10536677;28;19920;-69
2022/05/31 15:25:35;;;;;;;;;;;;;;;-145.66;100.00;59599.19;10523616;28;19919;-69
2022/05/31 15:30:38;;;;;;;;;;;;;;;-145.66;100.00;59599.19;10523781;28;19926;-67
2022/05/31 15:36:00;;;;;;;;;;;;;;;-145.66;100.00;59599.19;10526786;28;19920;-67
2022/05/31 15:41:09;;;;;;;;;;;;;;;-145.66;100.00;59599.19;10541381;28;19919;-67
2022/05/31 15:46:11;;;;;;;;;;;;;;;-145.66;100.00;59599.19;10538789;28;19924;-67
2022/05/31 15:51:17;;;;;;;;;;;;;;;-145.66;100.00;59599.19;10527970;28;20428;-67
2022/05/31 15:56:19;;;;;;;;;;;;;;;-145.66;100.00;59599.19;10540659;28;19920;-67
2022/05/31 16:01:21;;;;;;;;;;;;;;;-145.66;100.00;59599.19;10522695;28;20313;-67
2022/05/31 16:06:24;;;;;;;;;;;;;;;-145.66;100.00;59599.19;10539854;28;20267;-67
2022/05/31 16:11:26;;;;;;;;;;;;;;;-145.66;100.00;59599.19;10540027;28;19973;-67
2022/05/31 16:16:29;;;;;;;;;;;;;;;-145.66;100.00;59599.19;10540254;28;19927;-67
2022/05/31 16:21:31;;;;;;;;;;;;;;;-145.66;100.00;59599.19;10540577;28;19953;-66
2022/05/31 16:26:34;;;;;;;;;;;;;;;-145.66;100.00;59599.19;10539448;28;20355;-66
2022/05/31 16:31:45;;;;;;;;;;;;;;;-145.66;100.00;59599.19;10539883;28;19920;-67
2022/05/31 16:36:51;;;;;;;;;;;;;;;-145.66;100.00;59599.19;10538724;28;19923;-67
2022/05/31 16:41:57;;;;;;;;;;;;;;;-145.66;100.00;59599.19;10523511;28;19920;-67
2022/05/31 16:46:59;;;;;;;;;;;;;;;-145.66;100.00;59599.19;10548410;28;19927;-67
2022/05/31 16:52:01;;;;;;;;;;;;;;;-145.66;100.00;59599.19;10547763;28;19954;-67
2022/05/31 16:57:05;;;;;;;;;;;;;;;-145.66;100.00;59599.19;10547900;28;19920;-67
2022/05/31 17:02:07;;;;;;;;;;;;;;;-145.66;100.00;59599.19;10547086;28;20282;-67
2022/05/31 17:17:53;;;;;;;;;;;;;;;-145.66;100.00;59599.19;10531541;28;19943;-67
2022/05/31 17:23:02;;;;;;;;;;;;;;;-145.66;100.00;59599.19;10546958;28;19920;-67
2022/05/31 17:28:05;;;;;;;;;;;;;;;-145.66;100.00;59599.19;10528662;28;20264;-67
2022/05/31 17:33:21;;;;;;;;;;;;;;;-145.66;100.00;59599.19;10528742;28;19920;-67
2022/05/31 17:38:31;;;;;;;;;;;;;;;-145.66;100.00;59599.19;10546484;28;19920;-67
2022/05/31 17:43:35;;;;;;;;;;;;;;;-145.66;100.00;59599.19;10527631;28;20355;-67
2022/05/31 17:48:37;;;;;;;;;;;;;;;-145.66;100.00;59599.19;10545473;28;20263;-67
2022/05/31 17:53:40;;;;;;;;;;;;;;;-145.66;100.00;59599.19;10544483;28;19920;-67
2022/05/31 17:58:43;;;;;;;;;;;;;;;-145.66;100.00;59599.19;10545143;28;20465;-67
2022/05/31 18:03:45;;;;;;;;;;;;;;;-145.66;100.00;59599.19;10545426;28;19920;-65
2022/05/31 18:08:47;;;;;;;;;;;;;;;-145.66;100.00;59599.19;10544550;28;20375;-65
2022/05/31 18:13:50;;;;;;;;;;;;;;;-145.66;100.00;59599.19;10545108;28;19930;-65
2022/05/31 18:18:52;;;;;;;;;;;;;;;-145.66;100.00;59599.19;10544201;28;19942;-64
2022/05/31 18:23:55;;;;;;;;;;;;;;;-145.66;100.00;59599.19;10544647;28;19920;-65
2022/05/31 18:34:19;;;;;;;;;;;;;;;-145.66;100.00;59599.19;10529209;28;19920;-65
2022/05/31 18:44:34;;;;;;;;;;;;;;;-145.66;100.00;59599.19;10543821;28;19926;-65
2022/05/31 18:49:37;;;;;;;;;;;;;;;-145.66;100.00;59599.19;10534529;28;20275;-65
2022/05/31 18:54:39;;;;;;;;;;;;;;;-145.66;100.00;59599.19;10543477;28;19920;-65
2022/05/31 18:59:41;;;;;;;;;;;;;;;-145.66;100.00;59599.19;10542988;28;19931;-66
2022/05/31 19:04:48;;;;;;;;;;;;;;;-145.66;100.00;59599.19;10542472;28;19926;-66
2022/05/31 19:09:50;;;;;;;;;;;;;;;-145.66;100.00;59599.19;10542807;28;19926;-67
2022/05/31 19:14:52;;;;;;;;;;;;;;;-145.66;100.00;59599.19;10524738;28;19920;-66
2022/05/31 19:19:55;;;;;;;;;;;;;;;-145.66;100.00;59599.19;10524719;28;19920;-67
2022/05/31 19:24:58;;;;;;;;;;;;;;;-145.66;100.00;59599.19;10542794;28;19924;-67
2022/05/31 19:30:01;;;;;;;;;;;;;;;-145.66;100.00;59599.19;10541360;28;19930;-67
2022/05/31 19:35:03;;;;;;;;;;;;;;;-145.66;100.00;59599.19;10524478;28;19920;-68
2022/05/31 19:40:06;;;;;;;;;;;;;;;-145.66;100.00;59599.19;10541593;28;19920;-67
2022/05/31 19:45:10;;;;;;;;;;;;;;;-145.66;100.00;59599.19;10540894;28;20462;-67
2022/05/31 19:50:14;;;;;;;;;;;;;;;-145.66;100.00;59599.19;10541640;28;19920;-67
2022/05/31 19:55:17;;;;;;;;;;;;;;;-145.66;100.00;59599.19;10523254;28;19926;-67
2022/05/31 20:00:20;;;;;;;;;;;;;;;-145.66;100.00;59599.19;10522414;28;19920;-67
2022/05/31 20:05:22;;;;;;;;;;;;;;;-145.66;100.00;59599.19;10540532;28;20271;-67
2022/05/31 20:10:24;;;;;;;;;;;;;;;-145.66;100.00;59599.19;10540073;28;20248;-67
2022/05/31 20:15:30;;;;;;;;;;;;;;;-145.66;100.00;59599.19;10539265;28;20393;-67
2022/05/31 20:20:33;;;;;;;;;;;;;;;-145.66;100.00;59599.19;10540766;28;19920;-67
2022/05/31 20:25:38;;;;;;;;;;;;;;;-145.66;100.00;59599.19;10522340;28;19966;-67
2022/05/31 20:30:40;;;;;;;;;;;;;;;-145.66;100.00;59599.19;10539951;28;19920;-67
2022/05/31 20:35:44;;;;;;;;;;;;;;;-145.66;100.00;59599.19;10540340;28;19920;-66
2022/05/31 20:40:46;;;;;;;;;;;;;;;-145.66;100.00;59599.19;10540280;28;19927;-67
2022/05/31 20:45:48;;;;;;;;;;;;;;;-145.66;100.00;59599.19;10539530;28;19920;-66
2022/05/31 20:50:50;;;;;;;;;;;;;;;-145.66;100.00;59599.19;10539229;28;19927;-66
2022/05/31 20:55:53;;;;;;;;;;;;;;;-145.66;100.00;59599.19;10539706;28;19920;-66
2022/05/31 21:00:56;;;;;;;;;;;;;;;-145.66;100.00;59599.19;10521492;28;20286;-66
2022/05/31 21:05:59;;;;;;;;;;;;;;;-145.66;100.00;59599.19;10515276;28;19966;-66
2022/05/31 21:11:01;;;;;;;;;;;;;;;-145.66;100.00;59599.19;10532911;28;20405;-66
2022/05/31 21:16:04;;;;;;;;;;;;;;;-145.66;100.00;59599.19;10538822;28;20367;-66
2022/05/31 21:21:12;;;;;;;;;;;;;;;-145.66;100.00;59599.19;10539477;28;19920;-66
2022/05/31 21:26:18;;;;;;;;;;;;;;;-145.66;100.00;59599.19;10520257;28;20290;-66
2022/05/31 21:31:20;;;;;;;;;;;;;;;-145.66;100.00;59599.19;10527327;28;19920;-66
2022/05/31 21:36:22;;;;;;;;;;;;;;;-145.66;100.00;59599.19;10546407;28;19969;-66
2022/05/31 21:41:25;;;;;;;;;;;;;;;-145.66;100.00;59599.19;10545324;28;19927;-66
2022/05/31 21:46:27;;;;;;;;;;;;;;;-145.66;100.00;59599.19;10541960;28;19920;-66
2022/05/31 21:51:30;;;;;;;;;;;;;;;-145.66;100.00;59599.19;10544404;28;20367;-67
2022/05/31 21:56:35;;;;;;;;;;;;;;;-145.66;100.00;59599.19;10545258;28;19920;-65
2022/05/31 22:01:37;;;;;;;;;;;;;;;-145.66;100.00;59599.19;10536717;28;20421;-67
2022/05/31 22:06:39;;;;;;;;;;;;;;;-145.66;100.00;59599.19;10544135;28;19942;-66
2022/05/31 22:11:42;;;;;;;;;;;;;;;-145.66;100.00;59599.19;10545160;28;19939;-67
2022/05/31 22:16:44;;;;;;;;;;;;;;;-145.66;100.00;59599.19;10544407;28;20297;-66
2022/05/31 22:21:47;;;;;;;;;;;;;;;-145.66;100.00;59599.19;10543755;28;20355;-66
2022/05/31 22:26:50;;;;;;;;;;;;;;;-145.66;100.00;59599.19;10543915;28;19920;-67
2022/05/31 22:31:52;;;;;;;;;;;;;;;-145.66;100.00;59599.19;10544318;28;19923;-66
2022/05/31 22:36:54;;;;;;;;;;;;;;;-145.66;100.00;59599.19;10543617;28;19927;-66
2022/05/31 22:41:56;;;;;;;;;;;;;;;-145.66;100.00;59599.19;10542844;28;19931;-66
2022/05/31 22:46:59;;;;;;;;;;;;;;;-145.66;100.00;59599.19;10524467;28;19920;-66
2022/05/31 22:52:01;;;;;;;;;;;;;;;-145.66;100.00;59599.19;10542888;28;19973;-66
2022/05/31 22:57:03;;;;;;;;;;;;;;;-145.66;100.00;59599.19;10542508;28;19920;-66
2022/05/31 23:02:05;;;;;;;;;;;;;;;-145.66;100.00;59599.19;10542795;28;19919;-66
2022/05/31 23:07:08;;;;;;;;;;;;;;;-145.66;100.00;59599.19;10542037;28;19920;-66
2022/05/31 23:12:10;;;;;;;;;;;;;;;-145.66;100.00;59599.19;10542618;28;20003;-66
2022/05/31 23:17:14;;;;;;;;;;;;;;;-145.66;100.00;59599.19;10541572;28;20390;-66
2022/05/31 23:27:37;;;;;;;;;;;;;;;-145.66;100.00;59599.19;10499417;28;20259;-66
2022/05/31 23:32:39;;;;;;;;;;;;;;;-145.66;100.00;59599.19;10482205;28;19996;-66
2022/05/31 23:37:41;;;;;;;;;;;;;;;-145.66;100.00;59599.19;10505340;28;19920;-66
2022/05/31 23:42:44;;;;;;;;;;;;;;;-145.66;100.00;59599.19;10540537;28;19923;-66
2022/05/31 23:47:46;;;;;;;;;;;;;;;-145.66;100.00;59599.19;10541313;28;19920;-66
2022/05/31 23:52:48;;;;;;;;;;;;;;;-145.66;100.00;59599.19;10541069;28;19926;-66
2022/05/31 23:57:50;;;;;;;;;;;;;;;-145.66;100.00;59599.19;10539896;28;20397;-66
